GFLYD EGAA-EGAA
Flight info
| Callsign | GFLYD |
|---|---|
| Flight time | 0h 6m |
| Altitude | 40000 |
| Route | EGAA/07 BPK UN601 LESTA UP6 RODOL UM65 TENSO L603 BELOX DCT REMSI DCT UVPOK M147 ROBOP M146 IPSET P6 BELZU |
| Aircraft | C750/M-SBDE3FGHRWXY/S |
Departure
| Time | 2026-05-04 20:46 |
|---|---|
| Airport | Belfast International Airport (EGAA) |
Arrival
| Time | 2026-05-04 20:52 |
|---|---|
| Airport | Belfast International Airport (EGAA) |
| Time | Latitude | Longitude | Altitude | Speed | Heading |
|---|---|---|---|---|---|
| 2026-05-04 20:34 | 54.66201 | -6.20917 | 268 ft | 0 kts | 23° |
| 2026-05-04 20:39 | 54.66202 | -6.20912 | 268 ft | 0 kts | 63° |
| 2026-05-04 20:40 | 54.66197 | -6.20908 | 268 ft | 2 kts | 150° |
| 2026-05-04 20:40 | 54.66138 | -6.20874 | 268 ft | 10 kts | 166° |
| 2026-05-04 20:40 | 54.66100 | -6.20959 | 268 ft | 11 kts | 244° |
| 2026-05-04 20:40 | 54.66066 | -6.21081 | 268 ft | 11 kts | 245° |
| 2026-05-04 20:41 | 54.66028 | -6.21223 | 268 ft | 20 kts | 245° |
| 2026-05-04 20:41 | 54.65978 | -6.21377 | 268 ft | 9 kts | 206° |
| 2026-05-04 20:41 | 54.65938 | -6.21381 | 268 ft | 0 kts | 161° |
| 2026-05-04 20:43 | 54.65901 | -6.21348 | 268 ft | 13 kts | 158° |
| 2026-05-04 20:43 | 54.65847 | -6.21240 | 268 ft | 11 kts | 94° |
| 2026-05-04 20:43 | 54.65856 | -6.21184 | 268 ft | 0 kts | 64° |
| 2026-05-04 20:45 | 54.65859 | -6.21173 | 268 ft | 14 kts | 64° |
| 2026-05-04 20:45 | 54.66081 | -6.20346 | 270 ft | 131 kts | 65° |
| 2026-05-04 20:46 | 54.66486 | -6.18801 | 835 ft | 143 kts | 64° |
| 2026-05-04 20:46 | 54.66778 | -6.17106 | 1448 ft | 166 kts | 88° |
| 2026-05-04 20:46 | 54.66196 | -6.15087 | 1540 ft | 217 kts | 137° |
| 2026-05-04 20:46 | 54.64806 | -6.14071 | 1753 ft | 220 kts | 176° |
| 2026-05-04 20:47 | 54.63306 | -6.14606 | 1659 ft | 221 kts | 210° |
| 2026-05-04 20:47 | 54.62216 | -6.16334 | 1765 ft | 211 kts | 241° |
| 2026-05-04 20:47 | 54.61506 | -6.18514 | 1922 ft | 203 kts | 244° |
| 2026-05-04 20:47 | 54.60837 | -6.20610 | 2092 ft | 199 kts | 245° |
| 2026-05-04 20:48 | 54.60203 | -6.22734 | 2002 ft | 191 kts | 248° |
| 2026-05-04 20:48 | 54.59631 | -6.24684 | 1837 ft | 176 kts | 240° |
| 2026-05-04 20:48 | 54.58587 | -6.25749 | 1423 ft | 182 kts | 191° |
| 2026-05-04 20:48 | 54.57382 | -6.25573 | 1344 ft | 167 kts | 162° |
| 2026-05-04 20:49 | 54.56445 | -6.24572 | 1273 ft | 151 kts | 133° |
| 2026-05-04 20:49 | 54.55954 | -6.22975 | 1295 ft | 162 kts | 102° |
| 2026-05-04 20:49 | 54.56185 | -6.21125 | 1104 ft | 172 kts | 43° |
| 2026-05-04 20:49 | 54.57298 | -6.20749 | 1119 ft | 173 kts | 342° |
| 2026-05-04 20:50 | 54.58303 | -6.21901 | 1219 ft | 175 kts | 320° |
| 2026-05-04 20:50 | 54.59225 | -6.23125 | 1476 ft | 164 kts | 327° |
| 2026-05-04 20:50 | 54.60233 | -6.23941 | 1599 ft | 155 kts | 339° |
| 2026-05-04 20:50 | 54.61243 | -6.24506 | 1467 ft | 152 kts | 340° |
| 2026-05-04 20:51 | 54.62250 | -6.25017 | 1181 ft | 148 kts | 343° |
| 2026-05-04 20:51 | 54.63236 | -6.25463 | 848 ft | 146 kts | 345° |
| 2026-05-04 20:51 | 54.64185 | -6.25672 | 576 ft | 129 kts | 5° |
| 2026-05-04 20:51 | 54.64957 | -6.24728 | 548 ft | 154 kts | 60° |
| 2026-05-04 20:52 | 54.65376 | -6.22972 | 291 ft | 148 kts | 64° |
| 2026-05-04 20:52 | 54.65755 | -6.21568 | 270 ft | 101 kts | 65° |
| 2026-05-04 20:52 | 54.65939 | -6.20887 | 268 ft | 33 kts | 65° |
| 2026-05-04 20:52 | 54.66031 | -6.20546 | 268 ft | 31 kts | 65° |
| 2026-05-04 20:53 | 54.66118 | -6.20219 | 268 ft | 29 kts | 65° |
| 2026-05-04 20:53 | 54.66200 | -6.19908 | 268 ft | 28 kts | 65° |
| 2026-05-04 20:53 | 54.66262 | -6.19688 | 268 ft | 13 kts | 53° |
| 2026-05-04 20:53 | 54.66330 | -6.19685 | 268 ft | 9 kts | 329° |
| 2026-05-04 20:54 | 54.66378 | -6.19739 | 268 ft | 8 kts | 314° |
| 2026-05-04 20:54 | 54.66396 | -6.19815 | 268 ft | 7 kts | 276° |
| 2026-05-04 20:54 | 54.66388 | -6.19890 | 268 ft | 6 kts | 246° |
| 2026-05-04 20:54 | 54.66359 | -6.19994 | 269 ft | 18 kts | 245° |
| 2026-05-04 20:55 | 54.66297 | -6.20226 | 269 ft | 21 kts | 245° |
| 2026-05-04 20:55 | 54.66235 | -6.20453 | 269 ft | 20 kts | 244° |
| 2026-05-04 20:55 | 54.66185 | -6.20644 | 268 ft | 11 kts | 246° |
| 2026-05-04 20:55 | 54.66175 | -6.20694 | 268 ft | 6 kts | 243° |
| 2026-05-04 20:56 | 54.66142 | -6.20809 | 268 ft | 16 kts | 243° |
| 2026-05-04 20:56 | 54.66147 | -6.20878 | 269 ft | 4 kts | 317° |
| 2026-05-04 20:56 | 54.66194 | -6.20918 | 268 ft | 0 kts | 335° |